Tuesday, April 24, 2018, 8:55 PM EDT
Back to Local

KPOU, Poughkeepsie Dutchess Cty

Location: Wappingers Falls, NY, United States Lat: 41.633
Local Time: 8:55 PM EDT ( 0:55 GMT) Lon: -73.883
Time Zone: US/Eastern Elev: 167 ft

Show me the last for .
Show Decoded

2018-04-24 19:53 METAR KPOU 242353Z 17005KT 10SM CLR 15/04 A3020 RMK AO2 SLP225 T01500039 10189
                 20150 55007 =
2018-04-24 18:53 METAR KPOU 242253Z 16006KT 10SM FEW060 16/03 A3020 RMK AO2 SLP225 T01560033 =
2018-04-24 17:53 METAR KPOU 242153Z 19009KT 160V220 10SM CLR 17/02 A3022 RMK AO2 SLP230 T01670017
                 =
2018-04-24 16:53 METAR KPOU 242053Z 17009G21KT 10SM CLR 17/01 A3023 RMK AO2 SLP232 T01720011
                 56022 =
2018-04-24 15:53 METAR KPOU 241953Z 18009G17KT 10SM CLR 19/02 A3023 RMK AO2 SLP234 T01890022 =
2018-04-24 14:53 METAR KPOU 241853Z 21011G17KT 10SM CLR 19/01 A3026 RMK AO2 SLP243 T01890006 =
2018-04-24 13:53 METAR KPOU 241753Z 22010G21KT 10SM CLR 18/M01 A3029 RMK AO2 SLP254 T01781006
                 10183 20067 56025 =
2018-04-24 12:53 METAR KPOU 241653Z 23012G16KT 10SM CLR 17/00 A3031 RMK AO2 SLP261 T01670000 =
2018-04-24 11:53 METAR KPOU 241553Z 19010G23KT 10SM CLR 17/M02 A3034 RMK AO2 SLP270 T01671017 =
2018-04-24 10:53 METAR KPOU 241453Z 17008G15KT 10SM CLR 16/M03 A3036 RMK AO2 SLP279 T01611033
                 58011 =
2018-04-24 09:53 METAR KPOU 241353Z VRB03KT 10SM CLR 14/00 A3038 RMK AO2 SLP283 T01440000 =
2018-04-24 08:53 METAR KPOU 241253Z 00000KT 10SM CLR 11/02 A3040 RMK AO2 SLP290 T01110017 =
2018-04-24 07:53 METAR KPOU 241153Z 00000KT 10SM CLR 07/02 A3040 RMK AO2 SLP290 T00670022 10067
                 20011 50007 =
2018-04-24 06:53 METAR KPOU 241053Z 00000KT 10SM CLR 02/M01 A3040 RMK AO2 SLP291 T00171006 =
2018-04-24 05:53 METAR KPOU 240953Z AUTO 00000KT 10SM CLR 01/M01 A3039 RMK AO2 SLP287 T00111011 =
2018-04-24 04:53 METAR KPOU 240853Z AUTO 00000KT 10SM CLR 02/M01 A3038 RMK AO2 SLP283 T00171011
                 58003 =
2018-04-24 03:53 METAR KPOU 240753Z AUTO 00000KT 10SM CLR 03/M01 A3038 RMK AO2 SLP286 T00281006 =
2018-04-24 02:53 METAR KPOU 240653Z AUTO 00000KT 10SM CLR 03/M01 A3038 RMK AO2 SLP286 T00331006 =
2018-04-24 01:53 METAR KPOU 240553Z AUTO 00000KT 10SM CLR 04/M01 A3039 RMK AO2 SLP287 T00441011
                 10150 20044 58006 =
2018-04-24 00:53 METAR KPOU 240453Z AUTO 00000KT 10SM CLR 05/M01 A3040 RMK AO2 SLP290 T00501006
                 402001022 =
2018-04-23 23:53 METAR KPOU 240353Z AUTO 00000KT 10SM CLR 07/M01 A3041 RMK AO2 SLP294 T00721006 =
2018-04-23 22:53 METAR KPOU 240253Z AUTO 00000KT 10SM CLR 11/M02 A3040 RMK AO2 SLP293 T01111022
                 51014 =
2018-04-23 21:53 METAR KPOU 240153Z AUTO VRB04KT 10SM CLR 12/M03 A3040 RMK AO2 SLP292 T01221028 =

Support USWX by starting your Amazon purchase here.